Time;durP1;ratioP1;P1;durP2;ratioP2;P2;SDS_P1;SDS_P2;PMS_P1;PMS_P2;Temp;Humidity;BMP_temperature;BMP_pressure;BME280_temperature;BME280_humidity;BME280_pressure;Samples;Min_cycle;Max_cycle;Signal;HPM_P1;HPM_P2
2022/01/19 00:00:20;;;;;;;;;;;22.20;28.40;;;;;;5070043;28;20023;-63
2022/01/19 00:02:47;;;;;;;;;;;22.20;28.40;;;;;;5087993;28;20543;-63
2022/01/19 00:05:14;;;;;;;;;;;22.20;28.40;;;;;;5087076;28;20023;-65
2022/01/19 00:07:41;;;;;;;;;;;22.20;28.40;;;;;;5088086;28;20357;-63
2022/01/19 00:10:11;;;;;;;;;;;22.20;28.30;;;;;;5088081;28;20275;-63
2022/01/19 00:12:38;;;;;;;;;;;22.20;28.40;;;;;;5087796;28;19923;-63
2022/01/19 00:15:06;;;;;;;;;;;22.20;28.30;;;;;;5087349;28;19971;-63
2022/01/19 00:17:33;;;;;;;;;;;22.20;28.30;;;;;;5103252;28;19978;-63
2022/01/19 00:20:00;;;;;;;;;;;22.20;28.30;;;;;;5087604;28;19920;-63
2022/01/19 00:22:27;;;;;;;;;;;22.20;28.30;;;;;;5088368;28;20011;-63
2022/01/19 00:24:54;;;;;;;;;;;22.20;28.30;;;;;;5087576;28;20218;-63
2022/01/19 00:27:21;;;;;;;;;;;22.10;28.30;;;;;;5087537;28;20022;-63
2022/01/19 00:29:48;;;;;;;;;;;22.20;28.30;;;;;;5087634;28;19986;-63
2022/01/19 00:32:15;;;;;;;;;;;22.10;28.30;;;;;;5088193;28;20001;-63
2022/01/19 00:34:42;;;;;;;;;;;22.10;28.30;;;;;;5086891;28;19928;-63
2022/01/19 00:37:09;;;;;;;;;;;22.20;28.30;;;;;;5087815;28;20428;-63
2022/01/19 00:39:36;;;;;;;;;;;22.10;28.30;;;;;;5086978;28;19998;-63
2022/01/19 00:42:03;;;;;;;;;;;22.10;28.30;;;;;;5102309;28;20212;-63
2022/01/19 00:44:30;;;;;;;;;;;22.10;28.30;;;;;;5087150;28;20263;-63
2022/01/19 00:46:57;;;;;;;;;;;22.10;28.30;;;;;;5087348;28;19960;-63
2022/01/19 00:49:24;;;;;;;;;;;22.10;28.30;;;;;;5087646;28;20164;-64
2022/01/19 00:51:51;;;;;;;;;;;22.10;28.40;;;;;;5086841;28;19939;-63
2022/01/19 00:54:18;;;;;;;;;;;22.10;28.40;;;;;;5102370;28;19920;-63
2022/01/19 00:56:45;;;;;;;;;;;22.00;28.30;;;;;;5087122;28;19971;-63
2022/01/19 00:59:12;;;;;;;;;;;22.00;28.30;;;;;;5086168;28;19920;-63
2022/01/19 01:01:39;;;;;;;;;;;22.00;28.30;;;;;;5087231;28;20019;-63
2022/01/19 01:04:06;;;;;;;;;;;22.00;28.30;;;;;;5086331;28;19920;-63
2022/01/19 01:06:33;;;;;;;;;;;22.00;28.30;;;;;;5086578;28;19963;-64
2022/01/19 01:09:00;;;;;;;;;;;22.00;28.30;;;;;;5086914;28;19920;-64
2022/01/19 01:11:35;;;;;;;;;;;22.00;28.30;;;;;;5087086;28;19920;-63
2022/01/19 01:17:10;;;;;;;;;;;22.00;28.30;;;;;;5100136;28;19967;-63
2022/01/19 01:19:37;;;;;;;;;;;22.00;28.30;;;;;;5086229;28;19971;-63
2022/01/19 01:22:04;;;;;;;;;;;22.00;28.30;;;;;;5086589;28;19920;-63
2022/01/19 01:24:31;;;;;;;;;;;22.00;28.30;;;;;;5086152;28;19959;-64
2022/01/19 01:26:58;;;;;;;;;;;22.00;28.30;;;;;;5086914;28;19956;-63
2022/01/19 01:29:25;;;;;;;;;;;22.00;28.30;;;;;;5086644;28;19973;-63
2022/01/19 01:31:52;;;;;;;;;;;22.00;28.30;;;;;;5086188;28;20014;-63
2022/01/19 01:34:19;;;;;;;;;;;21.90;28.30;;;;;;5086417;28;19963;-63
2022/01/19 01:36:46;;;;;;;;;;;21.90;28.30;;;;;;5086383;28;20430;-63
2022/01/19 01:39:13;;;;;;;;;;;21.90;28.30;;;;;;5086361;28;19920;-63
2022/01/19 01:41:40;;;;;;;;;;;22.00;28.30;;;;;;5086398;28;20026;-63
2022/01/19 01:44:07;;;;;;;;;;;22.00;28.30;;;;;;5086017;28;20373;-63
2022/01/19 01:46:45;;;;;;;;;;;22.00;28.30;;;;;;5085849;28;20040;-64
2022/01/19 01:49:18;;;;;;;;;;;21.90;28.30;;;;;;5087102;28;20276;-63
2022/01/19 01:54:32;;;;;;;;;;;22.00;28.30;;;;;;5085990;28;20003;-66
2022/01/19 01:56:59;;;;;;;;;;;22.00;28.30;;;;;;5102020;28;20465;-63
2022/01/19 01:59:26;;;;;;;;;;;22.00;28.20;;;;;;5086221;28;20006;-63
2022/01/19 02:01:53;;;;;;;;;;;22.00;28.20;;;;;;5085850;28;19920;-64
2022/01/19 02:04:23;;;;;;;;;;;22.00;28.20;;;;;;5085926;28;19927;-63
2022/01/19 02:09:39;;;;;;;;;;;22.00;28.20;;;;;;5085499;28;20438;-64
2022/01/19 02:23:28;;;;;;;;;;;21.90;28.20;;;;;;5086456;28;20591;-63
2022/01/19 02:25:57;;;;;;;;;;;21.90;28.20;;;;;;5084951;28;19963;-64
2022/01/19 02:42:24;;;;;;;;;;;21.90;28.20;;;;;;5086145;28;20248;-63
2022/01/19 02:50:30;;;;;;;;;;;21.80;28.20;;;;;;5085918;28;19963;-63
2022/01/19 02:52:57;;;;;;;;;;;21.80;28.20;;;;;;5088953;28;20003;-64
2022/01/19 02:55:24;;;;;;;;;;;21.80;28.20;;;;;;5089318;28;20014;-63
2022/01/19 02:57:51;;;;;;;;;;;21.80;28.20;;;;;;5089599;28;19956;-64
2022/01/19 03:08:44;;;;;;;;;;;21.80;28.20;;;;;;5088993;28;20464;-63
2022/01/19 03:11:13;;;;;;;;;;;21.80;28.20;;;;;;5089270;28;19971;-64
2022/01/19 03:13:40;;;;;;;;;;;21.80;28.20;;;;;;5088913;28;20322;-63
2022/01/19 03:16:07;;;;;;;;;;;21.80;28.20;;;;;;5088919;28;20376;-64
2022/01/19 03:18:34;;;;;;;;;;;21.80;28.20;;;;;;5088897;28;19955;-64
2022/01/19 03:21:01;;;;;;;;;;;21.80;28.20;;;;;;5088251;28;20431;-64
2022/01/19 03:23:28;;;;;;;;;;;21.80;28.20;;;;;;5088994;28;19955;-63
2022/01/19 03:25:57;;;;;;;;;;;21.80;28.20;;;;;;5088888;28;19923;-64
2022/01/19 03:28:24;;;;;;;;;;;21.70;28.20;;;;;;5088869;28;19967;-63
2022/01/19 03:30:51;;;;;;;;;;;21.80;28.20;;;;;;5088903;28;19962;-64
2022/01/19 03:33:18;;;;;;;;;;;21.80;28.20;;;;;;5088818;28;20015;-63
2022/01/19 03:35:45;;;;;;;;;;;21.80;28.20;;;;;;5088866;28;20011;-64
2022/01/19 03:38:12;;;;;;;;;;;21.80;28.20;;;;;;5088390;28;20094;-63
2022/01/19 03:40:39;;;;;;;;;;;21.80;28.20;;;;;;5088642;28;19960;-63
2022/01/19 03:43:06;;;;;;;;;;;21.80;28.10;;;;;;5088831;28;19920;-64
2022/01/19 03:45:34;;;;;;;;;;;21.80;28.20;;;;;;5088283;28;20010;-63
2022/01/19 03:48:29;;;;;;;;;;;21.80;28.10;;;;;;5089049;28;20011;-65
2022/01/19 03:50:49;;;;;;;;;;;21.80;28.10;;;;;;5088405;28;19920;-63
2022/01/19 03:53:16;;;;;;;;;;;21.80;28.10;;;;;;5087532;28;19919;-64
2022/01/19 03:55:43;;;;;;;;;;;21.80;28.10;;;;;;5088651;28;20010;-64
2022/01/19 03:58:10;;;;;;;;;;;21.80;28.10;;;;;;5088842;28;19975;-63
2022/01/19 04:00:42;;;;;;;;;;;21.80;28.10;;;;;;5088705;28;19935;-63
2022/01/19 04:03:12;;;;;;;;;;;21.70;28.00;;;;;;5086550;28;19924;-64
2022/01/19 04:05:53;;;;;;;;;;;21.80;28.10;;;;;;5088249;28;19920;-64
2022/01/19 04:08:20;;;;;;;;;;;21.80;28.10;;;;;;5087714;28;20136;-63
2022/01/19 04:10:47;;;;;;;;;;;21.70;28.10;;;;;;5088280;28;20053;-63
2022/01/19 04:13:44;;;;;;;;;;;21.70;28.10;;;;;;5087367;28;19919;-63
2022/01/19 04:16:04;;;;;;;;;;;21.70;28.00;;;;;;5088431;28;20325;-64
2022/01/19 04:18:31;;;;;;;;;;;21.70;28.00;;;;;;5086532;28;19920;-64
2022/01/19 04:21:01;;;;;;;;;;;21.70;28.10;;;;;;5087556;28;20011;-64
2022/01/19 04:23:28;;;;;;;;;;;21.70;28.10;;;;;;5088451;28;20015;-64
2022/01/19 04:25:55;;;;;;;;;;;21.70;28.10;;;;;;5087457;28;20202;-64
2022/01/19 04:28:22;;;;;;;;;;;21.70;28.10;;;;;;5087517;28;20002;-63
2022/01/19 04:30:49;;;;;;;;;;;21.70;28.10;;;;;;5087707;28;19920;-64
2022/01/19 04:33:22;;;;;;;;;;;21.60;28.00;;;;;;5087346;28;20102;-64
2022/01/19 04:35:51;;;;;;;;;;;21.70;28.00;;;;;;5086876;28;19978;-64
2022/01/19 04:44:13;;;;;;;;;;;21.60;28.00;;;;;;5086025;28;20001;-63
2022/01/19 04:47:17;;;;;;;;;;;21.70;28.10;;;;;;5086551;28;20361;-63
2022/01/19 05:03:24;;;;;;;;;;;21.60;28.10;;;;;;5086266;28;19935;-64
2022/01/19 05:06:07;;;;;;;;;;;21.60;28.10;;;;;;5089282;28;19920;-63
2022/01/19 05:08:47;;;;;;;;;;;21.60;28.10;;;;;;5086444;28;20356;-63
2022/01/19 05:14:01;;;;;;;;;;;21.60;28.00;;;;;;5083692;28;20465;-64
2022/01/19 05:16:28;;;;;;;;;;;21.60;28.00;;;;;;5085417;28;19924;-63
2022/01/19 05:18:55;;;;;;;;;;;21.60;28.00;;;;;;5084803;28;19920;-64
2022/01/19 05:21:22;;;;;;;;;;;21.60;28.00;;;;;;5084815;28;20389;-64
2022/01/19 05:23:49;;;;;;;;;;;21.60;28.00;;;;;;5084912;28;19970;-64
2022/01/19 05:26:16;;;;;;;;;;;21.60;28.00;;;;;;5085544;28;19963;-64
2022/01/19 05:28:43;;;;;;;;;;;21.60;28.00;;;;;;5085119;28;20461;-64
2022/01/19 05:31:11;;;;;;;;;;;21.60;28.00;;;;;;5086468;28;19927;-64
2022/01/19 05:33:38;;;;;;;;;;;21.60;28.00;;;;;;5085522;28;19938;-64
2022/01/19 05:36:05;;;;;;;;;;;21.60;28.00;;;;;;5085984;28;19931;-64
2022/01/19 05:38:32;;;;;;;;;;;21.60;27.90;;;;;;5086345;28;19928;-63
2022/01/19 05:40:59;;;;;;;;;;;21.60;27.90;;;;;;5086940;28;19971;-64
2022/01/19 05:43:26;;;;;;;;;;;21.60;27.90;;;;;;5086904;28;20362;-64
2022/01/19 05:45:53;;;;;;;;;;;21.60;27.90;;;;;;5075203;28;19924;-63
2022/01/19 05:48:21;;;;;;;;;;;21.70;27.90;;;;;;5085163;28;19924;-64
2022/01/19 05:50:48;;;;;;;;;;;21.60;27.80;;;;;;5083755;28;20028;-64
2022/01/19 05:53:16;;;;;;;;;;;21.60;27.80;;;;;;5084251;28;20010;-64
2022/01/19 05:55:44;;;;;;;;;;;21.60;27.80;;;;;;5084461;28;20332;-64
2022/01/19 05:58:11;;;;;;;;;;;21.60;27.80;;;;;;5083335;28;20184;-67
2022/01/19 06:00:38;;;;;;;;;;;21.60;27.80;;;;;;5084506;28;20019;-63
2022/01/19 06:03:05;;;;;;;;;;;21.60;27.80;;;;;;5064410;28;20392;-64
2022/01/19 06:05:33;;;;;;;;;;;21.60;27.80;;;;;;5085005;28;20208;-64
2022/01/19 06:08:39;;;;;;;;;;;21.50;27.80;;;;;;5075116;28;19989;-64
2022/01/19 06:10:48;;;;;;;;;;;21.50;27.80;;;;;;5084407;28;19966;-64
2022/01/19 06:13:15;;;;;;;;;;;21.50;27.80;;;;;;5079912;28;20403;-64
2022/01/19 06:15:45;;;;;;;;;;;21.50;27.80;;;;;;5080569;28;19963;-68
2022/01/19 06:18:13;;;;;;;;;;;21.50;27.80;;;;;;5079293;28;20343;-65
2022/01/19 06:20:40;;;;;;;;;;;21.50;28.00;;;;;;5085572;28;19978;-63
2022/01/19 06:23:07;;;;;;;;;;;21.50;28.10;;;;;;5087319;28;20007;-63
2022/01/19 06:25:35;;;;;;;;;;;21.50;28.10;;;;;;5076038;28;19974;-65
2022/01/19 06:28:02;;;;;;;;;;;21.50;28.10;;;;;;5091507;28;20372;-65
2022/01/19 06:30:29;;;;;;;;;;;21.50;28.10;;;;;;5091225;28;19920;-65
2022/01/19 06:32:56;;;;;;;;;;;21.60;28.20;;;;;;5090476;28;20031;-65
2022/01/19 06:35:23;;;;;;;;;;;21.60;28.20;;;;;;5083212;28;20281;-62
2022/01/19 06:37:51;;;;;;;;;;;21.70;28.30;;;;;;5088973;28;19927;-62
2022/01/19 06:40:20;;;;;;;;;;;21.70;28.20;;;;;;5090308;28;20014;-65
2022/01/19 06:42:47;;;;;;;;;;;21.80;28.20;;;;;;5084651;28;19942;-64
2022/01/19 06:45:14;;;;;;;;;;;21.80;28.10;;;;;;5086845;28;19951;-64
2022/01/19 06:47:41;;;;;;;;;;;21.90;28.00;;;;;;5080400;28;19967;-64
2022/01/19 06:50:10;;;;;;;;;;;21.90;27.80;;;;;;5080665;28;19928;-66
2022/01/19 06:52:37;;;;;;;;;;;22.00;27.80;;;;;;5084476;28;19963;-66
2022/01/19 06:55:04;;;;;;;;;;;22.00;27.70;;;;;;5071986;28;19924;-66
2022/01/19 06:57:32;;;;;;;;;;;22.10;27.70;;;;;;5083793;28;19978;-66
2022/01/19 06:59:59;;;;;;;;;;;22.10;27.60;;;;;;5090216;28;19928;-69
2022/01/19 07:02:30;;;;;;;;;;;22.10;27.60;;;;;;5067342;28;19926;-66
2022/01/19 07:04:57;;;;;;;;;;;22.20;27.80;;;;;;5091099;28;20361;-62
2022/01/19 07:07:24;;;;;;;;;;;22.30;28.30;;;;;;5089869;28;19920;-67
2022/01/19 07:09:51;;;;;;;;;;;22.40;28.50;;;;;;5089969;28;19926;-67
2022/01/19 07:12:18;;;;;;;;;;;22.40;28.60;;;;;;5084114;28;19931;-65
2022/01/19 07:14:45;;;;;;;;;;;22.50;28.70;;;;;;5112462;28;19977;-62
2022/01/19 07:17:12;;;;;;;;;;;22.60;28.70;;;;;;5112745;28;19920;-66
2022/01/19 07:19:39;;;;;;;;;;;22.70;28.80;;;;;;5106076;28;20363;-69
2022/01/19 07:22:06;;;;;;;;;;;22.70;28.90;;;;;;5067279;28;19963;-72
2022/01/19 07:24:33;;;;;;;;;;;22.80;28.90;;;;;;5091342;28;19943;-66
2022/01/19 07:27:00;;;;;;;;;;;22.90;28.90;;;;;;5091779;28;19931;-65
2022/01/19 07:29:27;;;;;;;;;;;22.90;28.90;;;;;;5085043;28;20019;-66
2022/01/19 07:31:56;;;;;;;;;;;23.00;28.80;;;;;;5052662;28;20300;-65
2022/01/19 07:34:25;;;;;;;;;;;23.10;28.70;;;;;;5092001;28;19928;-65
2022/01/19 07:36:53;;;;;;;;;;;23.10;28.40;;;;;;5090640;28;19920;-66
2022/01/19 07:39:21;;;;;;;;;;;23.20;28.40;;;;;;5091079;28;20033;-69
2022/01/19 07:41:48;;;;;;;;;;;23.30;28.50;;;;;;5086550;28;19928;-67
2022/01/19 07:44:15;;;;;;;;;;;23.30;28.40;;;;;;5090043;28;19920;-69
2022/01/19 07:46:42;;;;;;;;;;;23.30;28.30;;;;;;5072487;28;19920;-67
2022/01/19 07:49:09;;;;;;;;;;;23.30;28.30;;;;;;5092446;28;19920;-69
2022/01/19 07:51:36;;;;;;;;;;;23.30;28.40;;;;;;5086875;28;19965;-69
2022/01/19 07:54:03;;;;;;;;;;;23.30;28.50;;;;;;5087890;28;19966;-67
2022/01/19 07:56:30;;;;;;;;;;;23.30;28.50;;;;;;5090519;28;19965;-73
2022/01/19 07:58:57;;;;;;;;;;;23.40;28.60;;;;;;5090678;28;19975;-65
2022/01/19 08:01:24;;;;;;;;;;;23.40;28.60;;;;;;5090760;28;20027;-65
2022/01/19 08:03:51;;;;;;;;;;;23.40;28.60;;;;;;5096081;28;19919;-68
2022/01/19 08:06:18;;;;;;;;;;;23.40;28.60;;;;;;5112135;28;19955;-69
2022/01/19 08:08:45;;;;;;;;;;;23.40;28.60;;;;;;5095475;28;19967;-68
2022/01/19 08:11:13;;;;;;;;;;;23.50;28.60;;;;;;5096588;28;19920;-70
2022/01/19 08:13:40;;;;;;;;;;;23.50;28.50;;;;;;5096106;28;19973;-71
2022/01/19 08:16:07;;;;;;;;;;;23.50;28.60;;;;;;5095588;28;20097;-72
2022/01/19 08:18:34;;;;;;;;;;;23.50;28.60;;;;;;5096095;28;19967;-73
2022/01/19 08:21:01;;;;;;;;;;;23.50;28.70;;;;;;5096464;28;19920;-71
2022/01/19 08:23:28;;;;;;;;;;;23.60;28.80;;;;;;5096306;28;19950;-69
2022/01/19 08:25:55;;;;;;;;;;;23.60;28.70;;;;;;5095870;28;19952;-64
2022/01/19 08:28:22;;;;;;;;;;;23.60;28.60;;;;;;5095970;28;20328;-73
2022/01/19 08:30:49;;;;;;;;;;;23.60;28.60;;;;;;5096925;28;19966;-69
2022/01/19 08:33:16;;;;;;;;;;;23.70;28.90;;;;;;5078080;28;19920;-71
2022/01/19 08:35:43;;;;;;;;;;;23.70;29.10;;;;;;5092452;28;19963;-72
2022/01/19 08:38:10;;;;;;;;;;;23.80;29.30;;;;;;5064025;28;19920;-70
2022/01/19 08:40:37;;;;;;;;;;;23.80;29.30;;;;;;5072177;28;19967;-68
2022/01/19 08:43:04;;;;;;;;;;;23.80;29.20;;;;;;5086699;28;20444;-69
2022/01/19 08:45:32;;;;;;;;;;;23.90;29.20;;;;;;5088532;28;19997;-69
2022/01/19 08:47:59;;;;;;;;;;;23.90;29.10;;;;;;5087237;28;20015;-71
2022/01/19 08:50:26;;;;;;;;;;;23.90;29.10;;;;;;5089768;28;19932;-73
2022/01/19 08:52:53;;;;;;;;;;;24.00;29.00;;;;;;5090884;28;19934;-67
2022/01/19 08:55:20;;;;;;;;;;;24.00;28.90;;;;;;5090424;28;19971;-66
2022/01/19 08:57:47;;;;;;;;;;;24.00;28.80;;;;;;5099186;27;19920;-67
2022/01/19 09:00:16;;;;;;;;;;;24.10;28.80;;;;;;5089944;28;19924;-64
2022/01/19 09:02:43;;;;;;;;;;;24.10;28.80;;;;;;5090367;28;19986;-69
2022/01/19 09:05:10;;;;;;;;;;;24.10;28.90;;;;;;5073203;28;19920;-66
2022/01/19 09:07:37;;;;;;;;;;;24.10;28.70;;;;;;5085644;28;19967;-67
2022/01/19 09:10:05;;;;;;;;;;;24.10;28.70;;;;;;5090658;28;19931;-67
2022/01/19 09:12:33;;;;;;;;;;;24.20;28.80;;;;;;5088882;28;19927;-68
2022/01/19 09:15:00;;;;;;;;;;;24.20;29.30;;;;;;5090691;28;19920;-68
2022/01/19 09:17:27;;;;;;;;;;;24.20;28.90;;;;;;5085446;28;19973;-67
2022/01/19 09:19:54;;;;;;;;;;;24.20;28.90;;;;;;5090327;28;20337;-69
2022/01/19 09:22:21;;;;;;;;;;;24.20;28.90;;;;;;5090127;28;20325;-67
2022/01/19 09:24:48;;;;;;;;;;;24.20;28.90;;;;;;5090640;28;19920;-71
2022/01/19 09:27:18;;;;;;;;;;;24.20;28.80;;;;;;5089570;28;20133;-67
2022/01/19 09:29:45;;;;;;;;;;;24.30;28.70;;;;;;5070254;28;19924;-67
2022/01/19 09:32:18;;;;;;;;;;;24.30;28.70;;;;;;5069623;28;19920;-68
2022/01/19 09:34:54;;;;;;;;;;;24.30;28.80;;;;;;5069104;28;19978;-67
2022/01/19 09:37:22;;;;;;;;;;;24.30;28.90;;;;;;5069757;28;19921;-65
2022/01/19 09:39:49;;;;;;;;;;;24.30;28.90;;;;;;5076467;28;19966;-67
2022/01/19 09:42:15;;;;;;;;;;;24.30;28.90;;;;;;5081929;28;19967;-67
2022/01/19 09:44:42;;;;;;;;;;;24.30;28.90;;;;;;5087532;28;19920;-66
2022/01/19 09:47:09;;;;;;;;;;;24.40;29.00;;;;;;5083191;28;20339;-70
2022/01/19 09:52:48;;;;;;;;;;;24.40;29.00;;;;;;5082290;28;20008;-69
2022/01/19 09:55:15;;;;;;;;;;;24.50;29.00;;;;;;5088708;28;19936;-65
2022/01/19 09:57:43;;;;;;;;;;;24.50;29.00;;;;;;5088349;28;19920;-67
2022/01/19 10:00:10;;;;;;;;;;;24.50;29.00;;;;;;5088683;28;19920;-65
2022/01/19 10:02:37;;;;;;;;;;;24.50;29.00;;;;;;5085187;28;19924;-64
2022/01/19 10:05:07;;;;;;;;;;;24.50;28.90;;;;;;5088633;28;20270;-66
2022/01/19 10:07:34;;;;;;;;;;;24.60;28.90;;;;;;5087913;28;19920;-66
2022/01/19 10:10:04;;;;;;;;;;;24.60;29.00;;;;;;5089685;28;19963;-63
2022/01/19 10:18:15;;;;;;;;;;;24.60;28.90;;;;;;5089541;28;20226;-63
2022/01/19 10:20:43;;;;;;;;;;;24.60;28.80;;;;;;5089372;28;19920;-62
2022/01/19 10:23:33;;;;;;;;;;;24.70;28.80;;;;;;5086672;28;20357;-64
2022/01/19 10:26:00;;;;;;;;;;;24.70;28.70;;;;;;5080881;28;20409;-62
2022/01/19 10:31:49;;;;;;;;;;;24.70;28.60;;;;;;5085209;28;20656;-62
2022/01/19 10:34:19;;;;;;;;;;;24.70;28.40;;;;;;5092569;28;19920;-62
2022/01/19 10:36:47;;;;;;;;;;;24.70;28.40;;;;;;5080291;28;19938;-65
2022/01/19 10:39:15;;;;;;;;;;;24.70;28.40;;;;;;5087377;28;20498;-61
2022/01/19 10:41:59;;;;;;;;;;;24.70;28.20;;;;;;5087813;28;20488;-62
2022/01/19 10:44:32;;;;;;;;;;;24.70;28.20;;;;;;5088216;28;20330;-63
2022/01/19 10:47:36;;;;;;;;;;;24.70;28.10;;;;;;5073479;28;19926;-64
2022/01/19 10:50:04;;;;;;;;;;;24.70;28.10;;;;;;5064384;28;20377;-65
2022/01/19 10:52:42;;;;;;;;;;;24.70;27.60;;;;;;5082344;28;19955;-63
2022/01/19 10:55:11;;;;;;;;;;;24.70;27.40;;;;;;5086865;28;19927;-64
2022/01/19 11:01:07;;;;;;;;;;;24.70;27.50;;;;;;5068796;28;19935;-64
2022/01/19 11:03:34;;;;;;;;;;;24.70;27.70;;;;;;5086379;28;20091;-64
2022/01/19 11:06:01;;;;;;;;;;;24.70;27.70;;;;;;5089667;28;20203;-65
2022/01/19 11:08:29;;;;;;;;;;;24.70;27.60;;;;;;5089449;28;19924;-63
2022/01/19 11:10:58;;;;;;;;;;;24.70;27.70;;;;;;5089757;28;19920;-64
2022/01/19 11:13:39;;;;;;;;;;;24.70;27.80;;;;;;5088593;28;19967;-65
2022/01/19 11:16:06;;;;;;;;;;;24.70;27.80;;;;;;5091537;28;20035;-64
2022/01/19 11:18:36;;;;;;;;;;;24.70;27.70;;;;;;5091672;28;19999;-64
2022/01/19 11:21:08;;;;;;;;;;;24.70;27.50;;;;;;5091437;28;19946;-64
2022/01/19 11:23:51;;;;;;;;;;;24.70;27.40;;;;;;5087238;28;19925;-64
2022/01/19 11:26:21;;;;;;;;;;;24.70;27.40;;;;;;5091153;28;20632;-65
2022/01/19 11:28:50;;;;;;;;;;;24.70;27.30;;;;;;5075407;28;19920;-65
2022/01/19 11:31:35;;;;;;;;;;;24.70;27.00;;;;;;5092392;28;20313;-66
2022/01/19 11:34:02;;;;;;;;;;;24.70;26.80;;;;;;5103600;28;20307;-63
2022/01/19 11:36:34;;;;;;;;;;;24.70;26.60;;;;;;5113131;28;20014;-64
2022/01/19 11:39:12;;;;;;;;;;;24.70;26.60;;;;;;5112588;28;19919;-65
2022/01/19 11:41:56;;;;;;;;;;;24.70;26.70;;;;;;5108908;28;19992;-65
2022/01/19 11:44:38;;;;;;;;;;;24.70;26.90;;;;;;5090474;28;20444;-66
2022/01/19 11:47:17;;;;;;;;;;;24.70;27.10;;;;;;5092355;28;20015;-67
2022/01/19 11:49:52;;;;;;;;;;;24.70;27.20;;;;;;5091993;28;20351;-66
2022/01/19 11:52:21;;;;;;;;;;;24.70;27.40;;;;;;5091089;28;19967;-65
2022/01/19 11:54:48;;;;;;;;;;;24.70;27.40;;;;;;5071641;28;19920;-63
2022/01/19 11:57:22;;;;;;;;;;;24.70;27.40;;;;;;5070143;28;19920;-62
2022/01/19 12:00:02;;;;;;;;;;;24.70;27.40;;;;;;5067804;28;19965;-63
2022/01/19 12:02:35;;;;;;;;;;;24.70;27.30;;;;;;5073063;28;19980;-63
2022/01/19 12:05:36;;;;;;;;;;;24.70;27.30;;;;;;5091525;28;20011;-62
2022/01/19 12:08:19;;;;;;;;;;;24.80;27.40;;;;;;5088994;28;20024;-63
2022/01/19 12:10:48;;;;;;;;;;;24.80;27.30;;;;;;5089160;28;20377;-63
2022/01/19 12:13:57;;;;;;;;;;;24.80;27.30;;;;;;5089822;28;19920;-62
2022/01/19 12:19:19;;;;;;;;;;;24.80;27.30;;;;;;5075848;28;20365;-64
2022/01/19 12:22:05;;;;;;;;;;;24.80;27.20;;;;;;5090760;28;19920;-63
2022/01/19 12:24:41;;;;;;;;;;;24.80;27.20;;;;;;5070451;28;19920;-63
2022/01/19 12:27:24;;;;;;;;;;;24.80;27.30;;;;;;5071072;28;20018;-65
2022/01/19 12:30:01;;;;;;;;;;;24.80;27.40;;;;;;5070463;28;19925;-67
2022/01/19 12:32:33;;;;;;;;;;;24.70;27.60;;;;;;5074762;28;19920;-65
2022/01/19 12:35:10;;;;;;;;;;;24.80;27.80;;;;;;5090882;28;19986;-64
2022/01/19 12:37:40;;;;;;;;;;;24.80;28.00;;;;;;5073256;28;19920;-68
2022/01/19 12:40:26;;;;;;;;;;;24.80;28.20;;;;;;5090261;28;19981;-63
2022/01/19 12:43:01;;;;;;;;;;;24.80;28.30;;;;;;5072063;28;20006;-63
2022/01/19 12:46:02;;;;;;;;;;;24.80;28.30;;;;;;5106219;28;19920;-65
2022/01/19 12:48:34;;;;;;;;;;;24.80;28.40;;;;;;5103977;28;19966;-64
2022/01/19 12:51:02;;;;;;;;;;;24.80;28.60;;;;;;5090219;28;20386;-65
2022/01/19 12:53:29;;;;;;;;;;;24.80;28.80;;;;;;5088364;28;19943;-65
2022/01/19 12:56:00;;;;;;;;;;;24.90;28.90;;;;;;5086279;28;20018;-63
2022/01/19 12:58:30;;;;;;;;;;;24.80;29.00;;;;;;5085527;28;19971;-63
2022/01/19 13:01:18;;;;;;;;;;;24.90;29.20;;;;;;5044733;28;20300;-62
2022/01/19 13:03:45;;;;;;;;;;;24.80;29.10;;;;;;5031952;28;19925;-62
2022/01/19 13:06:14;;;;;;;;;;;24.80;29.00;;;;;;5037613;28;19960;-63
2022/01/19 13:08:45;;;;;;;;;;;24.80;28.90;;;;;;5033925;28;20287;-62
2022/01/19 13:11:37;;;;;;;;;;;24.80;28.80;;;;;;5028837;28;19928;-64
2022/01/19 13:14:05;;;;;;;;;;;24.80;28.60;;;;;;5047170;28;20398;-64
2022/01/19 13:16:34;;;;;;;;;;;24.80;28.40;;;;;;5039799;28;20658;-65
2022/01/19 13:19:08;;;;;;;;;;;24.80;28.40;;;;;;5046509;28;19928;-64
2022/01/19 13:21:37;;;;;;;;;;;24.80;28.30;;;;;;5045975;28;19924;-64
2022/01/19 13:24:08;;;;;;;;;;;24.80;28.40;;;;;;5046270;28;20359;-65
2022/01/19 13:26:37;;;;;;;;;;;24.70;28.50;;;;;;5073479;28;20033;-65
2022/01/19 13:29:22;;;;;;;;;;;24.70;28.50;;;;;;5088120;28;19955;-65
2022/01/19 13:31:57;;;;;;;;;;;24.70;28.40;;;;;;5090038;28;19924;-64
2022/01/19 13:34:25;;;;;;;;;;;24.70;28.40;;;;;;5089860;28;20450;-67
2022/01/19 13:36:53;;;;;;;;;;;24.80;28.40;;;;;;5082872;28;19970;-65
2022/01/19 13:39:21;;;;;;;;;;;24.80;28.50;;;;;;5090832;28;20315;-67
2022/01/19 13:41:51;;;;;;;;;;;24.80;28.50;;;;;;5086357;28;19920;-65
2022/01/19 13:44:22;;;;;;;;;;;24.80;28.50;;;;;;5070019;28;19926;-64
2022/01/19 13:46:49;;;;;;;;;;;24.80;28.60;;;;;;5067392;28;19928;-69
2022/01/19 13:49:16;;;;;;;;;;;24.90;28.80;;;;;;5087696;28;19966;-67
2022/01/19 13:51:44;;;;;;;;;;;24.80;28.70;;;;;;5088993;28;20361;-69
2022/01/19 13:54:11;;;;;;;;;;;24.80;28.10;;;;;;5087766;28;20003;-65
2022/01/19 13:56:40;;;;;;;;;;;24.80;27.60;;;;;;5078260;28;19932;-65
2022/01/19 13:59:10;;;;;;;;;;;24.70;27.50;;;;;;5088202;28;20248;-66
2022/01/19 14:01:39;;;;;;;;;;;24.70;27.60;;;;;;5086026;28;20360;-66
2022/01/19 14:04:10;;;;;;;;;;;24.70;27.70;;;;;;5088153;28;20440;-64
2022/01/19 14:06:42;;;;;;;;;;;24.70;27.80;;;;;;5088236;28;19923;-65
2022/01/19 14:09:19;;;;;;;;;;;24.70;27.80;;;;;;5085667;28;19920;-64
2022/01/19 14:12:08;;;;;;;;;;;24.70;27.80;;;;;;5081057;28;19928;-66
2022/01/19 14:14:37;;;;;;;;;;;24.70;27.80;;;;;;5086604;28;20100;-65
2022/01/19 14:17:12;;;;;;;;;;;24.70;27.80;;;;;;5083630;28;19963;-64
2022/01/19 14:19:44;;;;;;;;;;;24.60;27.70;;;;;;5084733;28;19989;-63
2022/01/19 14:22:23;;;;;;;;;;;24.60;27.70;;;;;;5086737;28;20044;-64
2022/01/19 14:24:53;;;;;;;;;;;24.70;27.80;;;;;;5068652;28;20381;-63
2022/01/19 14:31:14;;;;;;;;;;;24.60;27.70;;;;;;5087628;28;19933;-62
2022/01/19 14:33:48;;;;;;;;;;;24.50;27.60;;;;;;5084995;28;19920;-62
2022/01/19 14:36:22;;;;;;;;;;;24.50;27.60;;;;;;5088421;28;19979;-62
2022/01/19 14:38:55;;;;;;;;;;;24.50;27.70;;;;;;5088293;28;19920;-63
2022/01/19 14:41:31;;;;;;;;;;;24.50;27.70;;;;;;5083609;28;19920;-65
2022/01/19 14:44:02;;;;;;;;;;;24.50;27.60;;;;;;5086603;28;19990;-63
2022/01/19 14:46:40;;;;;;;;;;;24.50;27.60;;;;;;5088407;28;20345;-63
2022/01/19 14:49:07;;;;;;;;;;;24.50;27.60;;;;;;5092624;28;19920;-65
2022/01/19 14:51:40;;;;;;;;;;;24.40;27.50;;;;;;5091064;28;19963;-64
2022/01/19 14:54:11;;;;;;;;;;;24.40;27.50;;;;;;5091755;28;19931;-64
2022/01/19 14:56:39;;;;;;;;;;;24.40;27.50;;;;;;5092619;28;20311;-65
2022/01/19 14:59:08;;;;;;;;;;;24.40;27.60;;;;;;5093344;28;19966;-62
2022/01/19 15:01:36;;;;;;;;;;;24.30;27.50;;;;;;5092011;28;19924;-64
2022/01/19 15:04:04;;;;;;;;;;;24.30;27.50;;;;;;5090631;28;20018;-63
2022/01/19 15:06:31;;;;;;;;;;;24.30;27.50;;;;;;5093454;28;20010;-62
2022/01/19 15:08:58;;;;;;;;;;;24.30;27.60;;;;;;5093230;28;19959;-64
2022/01/19 15:11:25;;;;;;;;;;;24.30;27.60;;;;;;5093587;28;19920;-62
2022/01/19 15:13:52;;;;;;;;;;;24.30;27.50;;;;;;5093205;28;19974;-63
2022/01/19 15:16:19;;;;;;;;;;;24.30;27.50;;;;;;5091457;28;19920;-62
2022/01/19 15:18:46;;;;;;;;;;;24.30;27.50;;;;;;5092073;28;19942;-63
2022/01/19 15:21:14;;;;;;;;;;;24.20;27.50;;;;;;5092439;28;19920;-65
2022/01/19 15:23:41;;;;;;;;;;;24.20;27.60;;;;;;5092111;28;20372;-64
2022/01/19 15:26:08;;;;;;;;;;;24.20;27.70;;;;;;5086905;28;20362;-62
2022/01/19 15:28:35;;;;;;;;;;;24.20;27.80;;;;;;5087513;28;20292;-69
2022/01/19 15:31:04;;;;;;;;;;;24.20;27.90;;;;;;5091641;28;19959;-64
2022/01/19 15:33:31;;;;;;;;;;;24.20;27.80;;;;;;5089813;28;19920;-62
2022/01/19 15:36:01;;;;;;;;;;;24.20;27.90;;;;;;5087050;28;19959;-66
2022/01/19 15:38:28;;;;;;;;;;;24.20;27.80;;;;;;5091351;28;20022;-65
2022/01/19 15:40:55;;;;;;;;;;;24.20;27.80;;;;;;5088160;28;19920;-66
2022/01/19 15:43:22;;;;;;;;;;;24.20;27.70;;;;;;5089836;28;19967;-65
2022/01/19 15:45:49;;;;;;;;;;;24.20;27.70;;;;;;5092406;28;20223;-64
2022/01/19 15:48:17;;;;;;;;;;;24.20;27.80;;;;;;5089450;28;19924;-61
2022/01/19 15:50:48;;;;;;;;;;;24.10;27.80;;;;;;5088104;28;19946;-63
2022/01/19 15:53:16;;;;;;;;;;;24.10;27.80;;;;;;5094925;28;20011;-64
2022/01/19 15:59:05;;;;;;;;;;;24.10;27.80;;;;;;5090809;28;20429;-64
2022/01/19 16:01:33;;;;;;;;;;;24.00;27.60;;;;;;5091925;28;19920;-63
2022/01/19 16:04:00;;;;;;;;;;;23.90;27.40;;;;;;5087758;28;20404;-63
2022/01/19 16:06:27;;;;;;;;;;;23.90;27.40;;;;;;5089012;28;19974;-65